Time;durP1;ratioP1;P1;durP2;ratioP2;P2;SDS_P1;SDS_P2;PMS_P1;PMS_P2;Temp;Humidity;BMP_temperature;BMP_pressure;BME280_temperature;BME280_humidity;BME280_pressure;Samples;Min_cycle;Max_cycle;Signal;HPM_P1;HPM_P2
2021/05/12 00:01:56;;;;;;;7.80;2.20;;;;;;;21.32;33.64;100398.72;4963532;28;20026;-77
2021/05/12 00:04:21;;;;;;;8.13;2.38;;;;;;;21.24;33.57;100395.09;4963675;28;20418;-76
2021/05/12 00:06:47;;;;;;;8.27;2.67;;;;;;;21.13;33.52;100390.69;4962332;28;20070;-76
2021/05/12 00:09:12;;;;;;;6.57;1.65;;;;;;;21.06;33.54;100392.25;4965139;28;20027;-79
2021/05/12 00:11:38;;;;;;;8.73;3.00;;;;;;;21.07;33.59;100390.28;4963111;28;20150;-76
2021/05/12 00:14:04;;;;;;;9.65;2.50;;;;;;;21.03;33.51;100398.63;4961700;28;20023;-78
2021/05/12 00:16:30;;;;;;;6.75;2.42;;;;;;;20.97;33.69;100397.41;4964253;28;20023;-77
2021/05/12 00:18:55;;;;;;;7.80;2.15;;;;;;;20.92;33.73;100386.66;4962967;28;20183;-76
2021/05/12 00:21:35;;;;;;;8.02;2.50;;;;;;;20.89;33.54;100389.44;4964974;28;20381;-78
2021/05/12 00:24:01;;;;;;;12.13;3.13;;;;;;;20.83;33.55;100394.56;4964234;28;20019;-78
2021/05/12 00:26:37;;;;;;;11.65;2.35;;;;;;;20.76;33.42;100395.31;4964063;28;20658;-76
2021/05/12 00:29:14;;;;;;;6.20;1.80;;;;;;;20.68;33.36;100390.94;4963911;28;20475;-76
2021/05/12 00:31:41;;;;;;;3.33;1.50;;;;;;;20.59;33.34;100384.16;4963475;28;20598;-76
2021/05/12 00:34:07;;;;;;;3.50;1.60;;;;;;;20.47;33.27;100390.81;4962054;28;20023;-76
2021/05/12 00:36:34;;;;;;;9.00;1.65;;;;;;;20.38;33.18;100384.81;4963582;28;20019;-79
2021/05/12 00:39:02;;;;;;;4.18;1.42;;;;;;;20.33;33.11;100386.00;4963430;28;20050;-76
2021/05/12 00:41:28;;;;;;;10.35;2.53;;;;;;;20.32;33.14;100384.38;4961723;28;20022;-76
2021/05/12 00:43:53;;;;;;;12.90;2.40;;;;;;;20.29;33.33;100389.91;4961417;28;20050;-78
2021/05/12 00:46:19;;;;;;;10.35;3.03;;;;;;;20.24;33.54;100394.63;4963223;28;20070;-76
2021/05/12 00:48:45;;;;;;;10.68;2.97;;;;;;;20.24;33.79;100383.53;4961947;28;20039;-77
2021/05/12 00:51:10;;;;;;;10.05;2.80;;;;;;;20.33;33.64;100390.72;4962007;28;20028;-76
2021/05/12 00:53:36;;;;;;;10.65;3.58;;;;;;;20.35;33.74;100385.59;4963128;28;20023;-76
2021/05/12 00:56:03;;;;;;;6.85;2.88;;;;;;;20.34;33.76;100384.78;4966284;28;20031;-77
2021/05/12 00:58:29;;;;;;;7.53;2.38;;;;;;;20.33;33.91;100383.22;4961892;28;20290;-76
2021/05/12 01:00:55;;;;;;;9.13;3.00;;;;;;;20.33;34.16;100380.44;4963426;28;20023;-76
2021/05/12 01:03:21;;;;;;;5.22;2.15;;;;;;;20.27;33.91;100384.75;4963323;28;20046;-77
2021/05/12 01:05:49;;;;;;;5.65;2.05;;;;;;;20.24;34.00;100379.97;4962964;28;20043;-78
2021/05/12 01:08:16;;;;;;;8.82;3.38;;;;;;;20.21;33.89;100380.75;4966942;28;20413;-76
2021/05/12 01:10:42;;;;;;;10.70;2.92;;;;;;;20.21;33.97;100391.84;4967107;28;20023;-78
2021/05/12 01:13:08;;;;;;;12.43;3.25;;;;;;;20.20;34.08;100390.25;4965450;28;20422;-76
2021/05/12 01:15:34;;;;;;;12.52;3.75;;;;;;;20.16;34.19;100384.66;4967129;28;20059;-77
2021/05/12 01:18:21;;;;;;;11.98;3.40;;;;;;;20.14;33.93;100386.25;4964146;28;20051;-76
2021/05/12 01:20:55;;;;;;;12.32;3.50;;;;;;;20.12;34.12;100383.88;4967409;28;20023;-76
2021/05/12 01:23:23;;;;;;;10.43;2.55;;;;;;;20.05;34.20;100389.38;4966752;28;20394;-76
2021/05/12 01:25:51;;;;;;;8.75;3.05;;;;;;;20.02;34.24;100378.22;4965147;28;20481;-76
2021/05/12 01:28:18;;;;;;;11.18;2.42;;;;;;;19.99;33.98;100388.13;4965294;28;20027;-76
2021/05/12 01:30:56;;;;;;;8.07;2.95;;;;;;;19.91;34.08;100378.16;4965274;28;20054;-76
2021/05/12 01:33:22;;;;;;;7.85;2.70;;;;;;;19.86;33.92;100378.50;4966787;28;20093;-77
2021/05/12 01:35:48;;;;;;;9.80;2.90;;;;;;;19.69;34.00;100379.97;4964963;28;20485;-76
2021/05/12 01:38:14;;;;;;;5.60;1.88;;;;;;;19.69;33.90;100382.75;4966523;28;20015;-77
2021/05/12 01:40:39;;;;;;;6.80;2.65;;;;;;;19.62;33.84;100372.38;4966495;28;20070;-79
2021/05/12 01:43:05;;;;;;;7.10;2.63;;;;;;;19.58;33.96;100370.78;4964960;28;20121;-77
2021/05/12 01:45:30;;;;;;;5.57;2.25;;;;;;;19.53;33.79;100369.13;4972313;28;20038;-76
2021/05/12 01:47:56;;;;;;;4.10;1.88;;;;;;;19.45;33.89;100374.97;4974735;28;20414;-76
2021/05/12 01:50:22;;;;;;;6.50;2.00;;;;;;;19.33;33.54;100374.06;4974681;28;20030;-79
2021/05/12 01:52:47;;;;;;;8.05;2.95;;;;;;;19.25;33.42;100372.41;4974641;28;20072;-76
2021/05/12 01:55:15;;;;;;;5.10;1.92;;;;;;;19.09;33.46;100364.34;4974885;28;20577;-76
2021/05/12 01:57:44;;;;;;;3.22;1.55;;;;;;;19.03;33.42;100365.84;4974563;28;20114;-77
2021/05/12 02:00:40;;;;;;;4.30;1.67;;;;;;;18.93;33.42;100357.44;4974708;28;20027;-77
2021/05/12 02:03:09;;;;;;;3.80;2.10;;;;;;;18.96;33.30;100359.44;4973856;28;20039;-76
2021/05/12 02:05:40;;;;;;;5.18;1.70;;;;;;;18.93;33.13;100358.22;4974031;28;20047;-76
2021/05/12 02:08:09;;;;;;;6.00;1.98;;;;;;;18.90;33.15;100358.22;4976206;28;20023;-79
2021/05/12 02:10:35;;;;;;;6.40;2.38;;;;;;;19.04;32.98;100355.56;4976155;28;20095;-76
2021/05/12 02:13:01;;;;;;;4.88;1.98;;;;;;;19.10;32.98;100356.81;4974688;28;20502;-76
2021/05/12 02:15:27;;;;;;;4.80;2.33;;;;;;;19.03;32.76;100356.75;4974524;28;20038;-80
2021/05/12 02:17:53;;;;;;;11.48;2.45;;;;;;;19.01;32.71;100356.34;4974878;28;20023;-76
2021/05/12 02:20:31;;;;;;;6.18;3.15;;;;;;;18.96;32.75;100353.91;4976079;28;20393;-76
2021/05/12 02:22:57;;;;;;;6.28;2.15;;;;;;;19.00;32.74;100366.63;4976057;28;20022;-80
2021/05/12 02:25:24;;;;;;;6.40;2.10;;;;;;;18.98;32.63;100360.66;4975748;28;20153;-76
2021/05/12 02:27:49;;;;;;;5.32;1.73;;;;;;;18.93;32.60;100357.44;4976094;28;20027;-78
2021/05/12 02:30:15;;;;;;;5.43;2.03;;;;;;;18.91;32.55;100354.25;4975784;28;20026;-75
2021/05/12 02:32:41;;;;;;;5.72;2.30;;;;;;;18.78;32.64;100354.50;4975810;28;20033;-79
2021/05/12 02:35:09;;;;;;;8.35;2.45;;;;;;;18.76;32.58;100356.06;4975751;28;20065;-80
2021/05/12 02:37:35;;;;;;;5.28;2.38;;;;;;;18.69;32.69;100354.00;4975667;28;20026;-76
2021/05/12 02:40:02;;;;;;;6.20;2.53;;;;;;;18.66;32.97;100354.75;4976024;28;20029;-78
2021/05/12 02:42:28;;;;;;;8.57;2.58;;;;;;;18.62;32.91;100356.66;4975575;28;20037;-75
2021/05/12 02:44:53;;;;;;;7.90;2.42;;;;;;;18.54;33.00;100360.50;4975522;28;20113;-77
2021/05/12 02:47:19;;;;;;;15.68;3.30;;;;;;;18.60;32.99;100361.78;4975486;28;20030;-77
2021/05/12 02:49:45;;;;;;;6.55;2.97;;;;;;;18.57;32.93;100356.97;4974096;28;20031;-79
2021/05/12 02:52:11;;;;;;;10.25;2.47;;;;;;;18.58;33.09;100369.63;4975426;28;20023;-76
2021/05/12 02:54:36;;;;;;;8.88;2.30;;;;;;;18.56;33.19;100358.16;4975320;28;20041;-76
2021/05/12 02:57:03;;;;;;;8.27;2.53;;;;;;;18.50;33.21;100357.69;4975187;28;20037;-76
2021/05/12 02:59:29;;;;;;;7.22;2.40;;;;;;;18.55;33.13;100353.81;4975235;28;20478;-76
2021/05/12 03:01:55;;;;;;;6.10;2.78;;;;;;;18.54;33.32;100357.75;4975252;28;20081;-79
2021/05/12 03:04:20;;;;;;;11.18;3.53;;;;;;;18.54;33.00;100357.75;4973610;28;20034;-79
2021/05/12 03:06:46;;;;;;;7.50;2.30;;;;;;;18.47;33.38;100357.66;4975061;28;20466;-76
2021/05/12 03:09:12;;;;;;;5.80;2.00;;;;;;;18.34;33.50;100359.84;4974953;28;20030;-77
2021/05/12 03:11:37;;;;;;;9.00;3.22;;;;;;;18.35;33.14;100355.91;4974996;28;20110;-80
2021/05/12 03:14:06;;;;;;;7.57;2.13;;;;;;;18.30;33.14;100353.47;4975081;28;20130;-80
2021/05/12 03:16:32;;;;;;;7.28;2.15;;;;;;;18.32;32.93;100351.13;4973652;28;20023;-78
2021/05/12 03:18:58;;;;;;;3.90;2.33;;;;;;;18.29;32.86;100352.69;4974898;28;20027;-79
2021/05/12 03:21:24;;;;;;;13.20;3.35;;;;;;;18.24;32.89;100349.44;4974820;28;20030;-76
2021/05/12 03:23:50;;;;;;;7.20;2.83;;;;;;;18.19;33.18;100347.00;4974755;28;20363;-76
2021/05/12 03:26:17;;;;;;;8.32;3.00;;;;;;;18.21;33.15;100348.22;4974636;28;20023;-76
2021/05/12 03:28:44;;;;;;;7.07;3.05;;;;;;;18.14;33.16;100356.44;4974380;28;20019;-76
2021/05/12 03:31:10;;;;;;;7.28;2.70;;;;;;;18.10;33.07;100341.75;4971547;28;20554;-77
2021/05/12 03:33:36;;;;;;;4.15;2.53;;;;;;;18.08;33.16;100352.38;4974693;28;20030;-76
2021/05/12 03:36:03;;;;;;;11.98;3.50;;;;;;;18.06;33.03;100349.19;4974559;28;20385;-76
2021/05/12 03:38:28;;;;;;;5.13;2.65;;;;;;;18.00;33.17;100345.94;4974535;28;20026;-76
2021/05/12 03:40:54;;;;;;;8.85;2.78;;;;;;;17.97;33.30;100348.66;4973236;28;20073;-78
2021/05/12 03:43:19;;;;;;;5.05;2.55;;;;;;;17.99;33.17;100346.34;4974362;28;20037;-75
2021/05/12 03:45:45;;;;;;;5.82;2.67;;;;;;;17.87;33.26;100347.31;4974362;28;20031;-80
2021/05/12 03:48:11;;;;;;;5.38;3.15;;;;;;;17.92;33.10;100347.03;4974360;28;20030;-79
2021/05/12 03:50:37;;;;;;;10.30;3.15;;;;;;;17.84;33.04;100345.31;4974309;28;20113;-79
2021/05/12 03:53:03;;;;;;;9.02;2.63;;;;;;;17.77;33.28;100347.19;4974717;28;20031;-79
2021/05/12 03:55:29;;;;;;;7.47;3.08;;;;;;;17.68;33.32;100350.97;4974154;28;20031;-76
2021/05/12 03:57:55;;;;;;;10.65;3.10;;;;;;;17.60;33.35;100353.97;4974198;28;20505;-79
2021/05/12 04:00:21;;;;;;;10.93;3.38;;;;;;;17.64;33.22;100352.84;4972893;28;20524;-79
2021/05/12 04:02:48;;;;;;;6.72;3.30;;;;;;;17.64;33.27;100350.09;4974107;28;20042;-75
2021/05/12 04:05:14;;;;;;;10.35;3.65;;;;;;;17.64;33.24;100355.63;4973739;28;20050;-80
2021/05/12 04:07:40;;;;;;;5.38;2.50;;;;;;;17.42;33.56;100359.19;4974167;28;20039;-76
2021/05/12 04:10:08;;;;;;;7.88;2.97;;;;;;;17.51;33.34;100354.22;4974039;28;20429;-80
2021/05/12 04:12:33;;;;;;;10.05;4.35;;;;;;;17.28;33.85;100347.91;4974071;28;20061;-79
2021/05/12 04:14:59;;;;;;;7.00;2.78;;;;;;;17.24;33.59;100350.59;4973936;28;20429;-76
2021/05/12 04:17:26;;;;;;;8.70;3.85;;;;;;;17.22;33.87;100346.59;4974060;28;20035;-79
2021/05/12 04:19:52;;;;;;;11.98;3.58;;;;;;;17.19;33.88;100351.69;4973990;28;20430;-75
2021/05/12 04:22:18;;;;;;;6.40;4.07;;;;;;;17.22;33.69;100358.44;4973542;28;20477;-76
2021/05/12 04:24:44;;;;;;;8.95;3.92;;;;;;;17.06;33.92;100358.53;4972617;28;20077;-77
2021/05/12 04:27:10;;;;;;;8.93;4.00;;;;;;;17.14;33.92;100354.75;4973554;28;20473;-76
2021/05/12 04:29:36;;;;;;;8.23;3.97;;;;;;;17.15;33.84;100355.53;4973502;28;20385;-76
2021/05/12 04:32:04;;;;;;;8.93;4.10;;;;;;;17.09;33.97;100362.56;4973525;28;20031;-79
2021/05/12 04:34:29;;;;;;;13.73;4.80;;;;;;;16.97;34.03;100366.25;4973743;28;20033;-75
2021/05/12 04:36:55;;;;;;;6.15;3.05;;;;;;;17.03;33.81;100364.81;4973827;28;20031;-79
2021/05/12 04:39:21;;;;;;;7.22;3.63;;;;;;;16.98;34.21;100370.63;4974204;28;20478;-75
2021/05/12 04:41:46;;;;;;;10.00;3.95;;;;;;;16.98;34.11;100373.38;4976787;28;20070;-76
2021/05/12 04:44:12;;;;;;;15.95;5.78;;;;;;;16.91;34.27;100373.22;4977683;28;20050;-76
2021/05/12 04:46:39;;;;;;;6.15;4.00;;;;;;;16.93;34.10;100370.94;4977680;28;20039;-75
2021/05/12 04:49:07;;;;;;;7.53;3.67;;;;;;;16.87;34.04;100372.38;4976370;28;20027;-79
2021/05/12 04:51:35;;;;;;;5.45;3.65;;;;;;;16.94;34.13;100375.28;4976407;28;20034;-76
2021/05/12 04:54:05;;;;;;;7.93;3.72;;;;;;;16.89;34.05;100370.03;4977964;28;20057;-75
2021/05/12 04:56:31;;;;;;;15.13;4.50;;;;;;;16.91;34.11;100378.75;4977544;28;20066;-79
2021/05/12 04:58:57;;;;;;;9.82;4.45;;;;;;;16.93;34.07;100379.22;4977311;28;20027;-75
2021/05/12 05:01:23;;;;;;;7.22;3.83;;;;;;;16.98;33.98;100383.63;4977584;28;20031;-75
2021/05/12 05:03:49;;;;;;;15.25;6.00;;;;;;;16.87;34.16;100375.13;4977477;28;20707;-75
2021/05/12 05:06:15;;;;;;;7.75;4.95;;;;;;;16.95;34.14;100379.63;4976938;28;20051;-75
2021/05/12 05:08:41;;;;;;;7.15;5.30;;;;;;;16.95;34.19;100387.91;4977401;28;20093;-76
2021/05/12 05:11:06;;;;;;;9.68;5.00;;;;;;;16.90;34.43;100382.69;4977524;28;20042;-76
2021/05/12 05:13:32;;;;;;;7.05;4.72;;;;;;;17.08;34.03;100383.84;4977114;28;20049;-75
2021/05/12 05:15:58;;;;;;;16.00;6.18;;;;;;;16.99;34.28;100386.00;4977225;28;20043;-75
2021/05/12 05:18:24;;;;;;;8.48;5.18;;;;;;;16.81;34.60;100385.66;4977086;28;20030;-76
2021/05/12 05:20:52;;;;;;;11.75;5.28;;;;;;;16.98;34.38;100398.22;4977011;28;20041;-76
2021/05/12 05:23:18;;;;;;;15.07;5.30;;;;;;;16.83;34.97;100394.38;4976706;28;20042;-78
2021/05/12 05:25:44;;;;;;;10.45;5.22;;;;;;;17.07;34.53;100387.75;4975535;28;20042;-78
2021/05/12 05:28:09;;;;;;;8.13;4.45;;;;;;;17.27;34.26;100390.47;4976870;28;20110;-79
2021/05/12 05:30:35;;;;;;;13.50;5.55;;;;;;;17.30;34.43;100386.97;4976866;28;20404;-77
2021/05/12 05:33:01;;;;;;;14.05;5.57;;;;;;;17.24;34.62;100388.47;4976731;28;20081;-78
2021/05/12 05:35:27;;;;;;;8.85;4.93;;;;;;;17.35;34.56;100397.72;4976480;28;20106;-76
2021/05/12 05:37:53;;;;;;;17.40;6.07;;;;;;;17.36;34.65;100397.34;4976936;28;20105;-74
2021/05/12 05:40:22;;;;;;;9.02;4.70;;;;;;;17.47;34.67;100403.09;4976460;28;20030;-74
2021/05/12 05:42:58;;;;;;;8.27;4.87;;;;;;;17.53;35.02;100398.81;4976628;28;20037;-77
2021/05/12 05:45:28;;;;;;;17.38;6.13;;;;;;;17.75;34.76;100400.03;4976587;28;20031;-75
2021/05/12 05:47:53;;;;;;;12.77;5.70;;;;;;;18.23;34.08;100401.19;4975312;28;20030;-75
2021/05/12 05:50:20;;;;;;;11.98;5.28;;;;;;;18.62;33.73;100398.16;4976509;28;20031;-76
2021/05/12 05:52:45;;;;;;;17.13;5.47;;;;;;;18.47;34.74;100396.38;4976616;28;20026;-76
2021/05/12 05:55:11;;;;;;;10.48;5.65;;;;;;;18.78;34.30;100395.22;4976670;28;20022;-79
2021/05/12 05:57:37;;;;;;;13.85;5.35;;;;;;;18.69;34.66;100391.97;4976064;28;20041;-76
2021/05/12 06:00:05;;;;;;;14.95;5.68;;;;;;;18.87;34.65;100390.19;4976307;28;20031;-78
2021/05/12 06:02:31;;;;;;;10.13;4.97;;;;;;;18.95;34.69;100388.31;4976309;28;20046;-80
2021/05/12 06:04:56;;;;;;;17.85;6.15;;;;;;;18.68;35.28;100396.69;4976078;28;20485;-80
2021/05/12 06:07:22;;;;;;;12.63;4.95;;;;;;;18.81;35.05;100395.25;4976710;28;20062;-79
2021/05/12 06:09:47;;;;;;;14.63;5.40;;;;;;;18.87;34.99;100392.16;4976401;28;20023;-76
2021/05/12 06:12:13;;;;;;;10.85;5.45;;;;;;;18.92;35.12;100398.16;4976362;28;20038;-80
2021/05/12 06:14:39;;;;;;;14.57;4.82;;;;;;;19.22;34.50;100400.88;4976221;28;20037;-77
2021/05/12 06:17:04;;;;;;;19.98;6.80;;;;;;;19.09;35.09;100394.81;4976322;28;20023;-79
2021/05/12 06:19:30;;;;;;;12.63;5.93;;;;;;;19.33;34.71;100404.53;4976381;28;20112;-75
2021/05/12 06:21:55;;;;;;;16.23;6.50;;;;;;;19.48;34.75;100399.16;4976066;28;20433;-79
2021/05/12 06:24:21;;;;;;;21.88;6.10;;;;;;;19.57;34.83;100402.41;4975971;28;20031;-75
2021/05/12 06:26:49;;;;;;;14.63;6.53;;;;;;;19.69;34.83;100402.16;4975790;28;20051;-75
2021/05/12 06:29:15;;;;;;;20.38;6.63;;;;;;;19.64;35.07;100400.50;4976081;28;20367;-75
2021/05/12 06:31:40;;;;;;;17.25;6.57;;;;;;;19.65;35.36;100401.34;4975911;28;20134;-75
2021/05/12 06:34:06;;;;;;;11.68;5.88;;;;;;;19.88;35.10;100409.44;4975787;28;20031;-75
2021/05/12 06:36:31;;;;;;;17.17;7.25;;;;;;;19.82;35.44;100410.97;4975620;28;20034;-75
2021/05/12 06:38:57;;;;;;;19.08;6.95;;;;;;;19.90;35.39;100407.88;4975862;28;20042;-74
2021/05/12 06:41:23;;;;;;;14.82;6.50;;;;;;;20.01;35.33;100407.94;4974173;28;20034;-74
2021/05/12 06:43:49;;;;;;;15.75;6.82;;;;;;;20.00;35.55;100406.34;4971827;28;20505;-77
2021/05/12 06:46:16;;;;;;;24.70;8.48;;;;;;;19.73;36.16;100407.75;4973875;28;20069;-81
2021/05/12 06:48:42;;;;;;;21.83;8.13;;;;;;;20.09;35.74;100406.81;4975450;28;20057;-81
2021/05/12 06:51:07;;;;;;;19.15;7.40;;;;;;;20.28;35.74;100408.53;4973942;28;20026;-77
2021/05/12 06:53:34;;;;;;;17.83;7.60;;;;;;;20.40;35.44;100415.72;4975216;28;20035;-75
2021/05/12 06:56:01;;;;;;;18.25;7.40;;;;;;;20.09;36.05;100422.66;4975222;28;20027;-75
2021/05/12 06:58:26;;;;;;;18.25;6.57;;;;;;;20.24;35.97;100416.03;4975021;28;20038;-74
2021/05/12 07:00:52;;;;;;;15.82;6.68;;;;;;;20.50;35.72;100420.59;4975150;28;20031;-74
2021/05/12 07:03:20;;;;;;;20.50;7.18;;;;;;;20.52;35.67;100423.78;4973212;28;20057;-77
2021/05/12 07:05:46;;;;;;;31.13;8.05;;;;;;;20.40;36.00;100418.50;4974842;28;20520;-75
2021/05/12 07:08:12;;;;;;;15.30;6.43;;;;;;;20.56;35.97;100424.59;4973168;28;20071;-74
2021/05/12 07:10:38;;;;;;;18.02;7.30;;;;;;;20.57;36.24;100422.63;4974314;28;20026;-76
2021/05/12 07:13:04;;;;;;;17.85;6.75;;;;;;;20.62;36.46;100425.00;4970419;28;20034;-70
2021/05/12 07:15:30;;;;;;;19.80;7.15;;;;;;;20.71;36.27;100429.03;4966796;28;20731;-74
2021/05/12 07:17:55;;;;;;;17.92;7.63;;;;;;;20.96;36.19;100431.91;4964535;28;20034;-75
2021/05/12 07:20:21;;;;;;;22.30;7.68;;;;;;;21.03;36.27;100423.63;4963842;28;20031;-87
2021/05/12 07:22:47;;;;;;;17.30;7.50;;;;;;;20.94;36.77;100427.94;4960339;28;20039;-75
2021/05/12 07:25:14;;;;;;;20.75;8.32;;;;;;;21.17;36.49;100424.84;4954653;28;20035;-76
2021/05/12 07:27:39;;;;;;;25.48;6.32;;;;;;;21.31;36.59;100419.34;4955592;28;20154;-75
2021/05/12 07:30:06;;;;;;;19.88;6.45;;;;;;;21.43;36.51;100418.97;4955047;28;20062;-75
2021/05/12 07:32:32;;;;;;;21.40;6.18;;;;;;;21.44;36.63;100425.31;4954724;28;20037;-76
2021/05/12 07:34:58;;;;;;;20.52;6.30;;;;;;;21.62;36.35;100430.94;4955077;28;20031;-75
2021/05/12 07:37:24;;;;;;;17.65;5.20;;;;;;;21.69;36.45;100431.75;4955278;28;20083;-79
2021/05/12 07:39:50;;;;;;;9.68;3.97;;;;;;;21.95;35.89;100436.09;4954988;28;20031;-75
2021/05/12 07:42:18;;;;;;;24.15;5.68;;;;;;;21.87;36.03;100434.50;4964604;28;20033;-75
2021/05/12 07:44:46;;;;;;;16.17;5.10;;;;;;;21.93;35.88;100438.50;4962816;28;20027;-75
2021/05/12 07:47:12;;;;;;;15.18;4.50;;;;;;;22.08;35.68;100433.75;4962371;28;20024;-75
2021/05/12 07:49:38;;;;;;;23.00;6.45;;;;;;;22.18;35.78;100429.38;4964841;28;20126;-75
2021/05/12 07:52:07;;;;;;;13.82;4.15;;;;;;;22.37;35.48;100434.53;4962956;28;20027;-78
2021/05/12 07:54:33;;;;;;;12.90;2.97;;;;;;;22.53;35.11;100437.66;4961878;28;20085;-75
2021/05/12 07:56:58;;;;;;;8.52;3.28;;;;;;;22.55;35.02;100434.47;4964435;28;20481;-75
2021/05/12 07:59:24;;;;;;;12.30;2.90;;;;;;;22.60;34.96;100437.63;4962246;28;20367;-75
2021/05/12 08:01:50;;;;;;;7.43;2.67;;;;;;;22.76;34.59;100439.19;4962133;28;20065;-74
2021/05/12 08:04:16;;;;;;;14.32;3.83;;;;;;;22.93;33.97;100443.91;4962749;28;20086;-75
2021/05/12 08:06:41;;;;;;;6.32;1.85;;;;;;;22.99;33.67;100439.53;4962117;28;20438;-76
2021/05/12 08:09:09;;;;;;;15.55;2.83;;;;;;;22.92;33.24;100442.34;4961827;28;20350;-75
2021/05/12 08:11:35;;;;;;;34.67;4.32;;;;;;;23.10;32.83;100443.03;4962228;28;20023;-75
2021/05/12 08:14:02;;;;;;;14.90;4.70;;;;;;;23.30;32.89;100445.34;4964297;28;20058;-75
2021/05/12 08:16:28;;;;;;;8.48;2.55;;;;;;;23.46;32.89;100442.84;4963651;28;20057;-78
2021/05/12 08:18:53;;;;;;;9.48;2.53;;;;;;;23.68;32.42;100440.75;4964261;28;20385;-77
2021/05/12 08:21:19;;;;;;;9.43;2.80;;;;;;;23.74;32.34;100437.13;4964399;28;20031;-84
2021/05/12 08:23:44;;;;;;;7.55;1.98;;;;;;;24.05;31.87;100443.63;4963281;28;20037;-74
2021/05/12 08:26:10;;;;;;;28.92;7.00;;;;;;;24.21;31.76;100450.69;4963761;28;20090;-76
2021/05/12 08:28:38;;;;;;;9.88;2.30;;;;;;;24.60;31.48;100450.31;4962066;28;20027;-75
2021/05/12 08:31:05;;;;;;;8.02;1.73;;;;;;;24.54;31.42;100447.16;4961723;28;20023;-77
2021/05/12 08:33:31;;;;;;;8.02;3.03;;;;;;;24.77;31.37;100446.50;4963573;28;20035;-76
2021/05/12 08:35:57;;;;;;;6.75;2.40;;;;;;;24.76;31.60;100452.53;4961677;28;20371;-75
2021/05/12 08:38:25;;;;;;;5.63;2.00;;;;;;;24.86;30.85;100451.59;4972189;28;20122;-75
2021/05/12 08:40:57;;;;;;;5.25;2.15;;;;;;;25.01;30.39;100443.81;4972299;28;20026;-75
2021/05/12 08:43:24;;;;;;;7.85;1.80;;;;;;;24.86;30.34;100446.00;4969520;28;20061;-75
2021/05/12 08:45:51;;;;;;;17.05;3.58;;;;;;;25.02;30.05;100449.03;4965208;28;20041;-74
2021/05/12 08:48:17;;;;;;;6.05;2.13;;;;;;;24.53;30.70;100453.97;4978703;28;20122;-76
2021/05/12 08:50:45;;;;;;;7.10;2.15;;;;;;;24.61;30.53;100455.47;4966189;28;20028;-78
2021/05/12 08:53:11;;;;;;;12.65;2.90;;;;;;;24.65;29.89;100455.44;4967651;28;20030;-75
2021/05/12 08:55:36;;;;;;;8.48;2.58;;;;;;;24.74;29.57;100457.75;4972426;28;20031;-75
2021/05/12 08:58:02;;;;;;;5.78;1.75;;;;;;;24.81;29.80;100452.06;4966216;28;20023;-76
2021/05/12 09:00:28;;;;;;;3.60;1.20;;;;;;;24.72;29.90;100452.56;4963215;28;20035;-75
2021/05/12 09:02:53;;;;;;;6.85;2.13;;;;;;;24.72;29.95;100452.56;4962432;28;20143;-76
2021/05/12 09:05:20;;;;;;;7.22;1.85;;;;;;;24.68;30.16;100448.22;4962487;28;20518;-74
2021/05/12 09:07:47;;;;;;;5.57;1.60;;;;;;;24.93;29.75;100448.72;4961128;28;20043;-75
2021/05/12 09:10:14;;;;;;;8.82;2.20;;;;;;;24.95;29.61;100459.50;4961342;28;20035;-78
2021/05/12 09:12:56;;;;;;;5.03;1.52;;;;;;;25.03;29.79;100458.19;4967266;28;20121;-75
2021/05/12 09:15:24;;;;;;;6.53;1.65;;;;;;;24.97;29.39;100462.66;4966130;28;20494;-75
2021/05/12 09:17:52;;;;;;;11.93;2.58;;;;;;;24.71;29.37;100464.97;4963363;28;20023;-75
2021/05/12 09:20:24;;;;;;;6.20;1.58;;;;;;;24.51;29.32;100456.38;4961184;28;20113;-75
2021/05/12 09:23:05;;;;;;;5.15;1.63;;;;;;;24.34;29.34;100463.75;4961925;28;20058;-76
2021/05/12 09:25:33;;;;;;;10.45;1.90;;;;;;;24.02;29.59;100463.97;4963316;28;20454;-76
2021/05/12 09:28:34;;;;;;;5.78;1.48;;;;;;;23.47;30.34;100469.53;4964561;28;20031;-75
2021/05/12 09:31:06;;;;;;;9.23;2.03;;;;;;;23.83;29.83;100469.34;4955337;28;20093;-76
2021/05/12 09:33:34;;;;;;;8.38;1.92;;;;;;;23.91;30.22;100462.50;4967030;28;20070;-76
2021/05/12 09:36:00;;;;;;;5.13;1.90;;;;;;;24.06;29.73;100467.53;4964347;28;20109;-79
2021/05/12 09:38:31;;;;;;;7.30;1.75;;;;;;;24.02;30.19;100468.75;4966153;28;20058;-77
2021/05/12 09:41:02;;;;;;;2.30;1.00;;;;;;;24.11;30.20;100465.50;4962718;28;20027;-76
2021/05/12 09:43:30;;;;;;;3.33;1.48;;;;;;;24.34;29.92;100469.31;4965909;28;20437;-75
2021/05/12 09:46:15;;;;;;;6.20;1.65;;;;;;;24.44;29.50;100470.41;4964445;28;20063;-76
2021/05/12 09:49:08;;;;;;;7.88;1.75;;;;;;;24.62;29.19;100479.41;4964769;28;20065;-77
2021/05/12 09:51:39;;;;;;;5.10;1.50;;;;;;;24.71;29.52;100473.34;4962797;28;20038;-77
2021/05/12 09:54:19;;;;;;;8.05;1.52;;;;;;;24.69;29.49;100477.75;4964867;28;20097;-77
2021/05/12 09:56:54;;;;;;;3.90;1.47;;;;;;;24.53;29.47;100478.31;4973103;28;20102;-76
2021/05/12 09:59:28;;;;;;;6.47;2.08;;;;;;;24.55;29.59;100481.47;4974980;28;20085;-76
2021/05/12 10:01:56;;;;;;;5.95;1.63;;;;;;;24.52;29.36;100476.72;4975798;28;20388;-75
2021/05/12 10:04:26;;;;;;;3.92;1.20;;;;;;;24.46;29.26;100486.75;4962868;28;20461;-77
2021/05/12 10:06:53;;;;;;;21.05;3.25;;;;;;;24.28;29.84;100484.13;4956556;28;20154;-78
2021/05/12 10:09:24;;;;;;;8.02;1.67;;;;;;;24.39;29.18;100484.81;4956593;28;20035;-78
2021/05/12 10:12:10;;;;;;;2.83;1.00;;;;;;;24.31;28.81;100474.91;4959642;28;20033;-75
2021/05/12 10:14:38;;;;;;;6.82;1.55;;;;;;;24.76;28.75;100477.66;4975666;28;20113;-76
2021/05/12 10:17:06;;;;;;;7.50;1.80;;;;;;;24.72;28.91;100483.31;4974696;28;20031;-76
2021/05/12 10:19:33;;;;;;;4.75;1.92;;;;;;;24.92;28.27;100483.47;4968971;28;20125;-79
2021/05/12 10:22:00;;;;;;;7.85;1.20;;;;;;;24.77;28.66;100476.44;4964943;28;20045;-76
2021/05/12 10:24:26;;;;;;;3.75;1.27;;;;;;;24.94;28.27;100480.25;4964850;28;20054;-77
2021/05/12 10:26:53;;;;;;;3.42;0.93;;;;;;;25.24;27.88;100480.31;4966899;28;20039;-75
2021/05/12 10:29:21;;;;;;;6.18;2.35;;;;;;;25.01;27.96;100488.53;4963232;28;20039;-76
2021/05/12 10:31:46;;;;;;;5.50;1.40;;;;;;;24.97;28.22;100482.22;4963115;28;20027;-76
2021/05/12 10:34:36;;;;;;;2.17;1.10;;;;;;;25.25;28.31;100479.09;4966435;28;20028;-76
2021/05/12 10:37:21;;;;;;;4.18;1.65;;;;;;;25.36;27.88;100479.75;4965820;28;20102;-77
2021/05/12 10:39:52;;;;;;;2.05;1.02;;;;;;;25.52;27.63;100475.53;4963681;28;20027;-79
2021/05/12 10:45:41;;;;;;;3.00;1.40;;;;;;;25.92;27.32;100473.75;4913468;29;20028;-75
2021/05/12 10:48:07;;;;;;;;;;;;;;;25.68;27.11;100470.88;4944018;28;20039;-76
2021/05/12 10:50:50;;;;;;;2.90;1.13;;;;;;;26.13;26.31;100478.22;4954231;28;19914;-76
2021/05/12 10:53:18;;;;;;;13.20;2.38;;;;;;;26.03;26.66;100476.38;4953053;29;20371;-77
2021/05/12 10:56:00;;;;;;;9.98;1.10;;;;;;;26.07;26.28;100477.09;4956977;28;20031;-77
2021/05/12 10:58:29;;;;;;;2.45;1.02;;;;;;;26.33;26.08;100479.06;4973862;28;20397;-76
2021/05/12 11:01:10;;;;;;;3.37;1.30;;;;;;;25.92;26.19;100488.56;4973633;28;20035;-77
2021/05/12 11:03:50;;;;;;;1.48;0.75;;;;;;;25.72;26.43;100491.25;4974007;28;20031;-78
2021/05/12 11:06:24;;;;;;;2.60;1.02;;;;;;;26.28;26.27;100487.94;4975055;28;20051;-76
2021/05/12 11:09:12;;;;;;;9.60;7.68;;;;;;;26.26;26.58;100482.78;4974053;28;20550;-76
2021/05/12 11:11:37;;;;;;;11.73;5.35;;;;;;;26.22;26.06;100484.88;4975298;28;20058;-76
2021/05/12 11:14:27;;;;;;;3.72;1.00;;;;;;;26.32;26.09;100485.91;4975060;28;20466;-78
2021/05/12 11:17:12;;;;;;;6.32;1.58;;;;;;;26.52;25.55;100483.94;4973657;28;20041;-77
2021/05/12 11:19:51;;;;;;;4.53;1.08;;;;;;;26.56;25.92;100486.69;4973942;28;20397;-77
2021/05/12 11:22:43;;;;;;;2.05;0.98;;;;;;;26.32;25.69;100485.09;4974377;28;20029;-76
2021/05/12 11:25:12;;;;;;;4.38;1.10;;;;;;;26.63;25.66;100485.78;4973785;28;20027;-76
2021/05/12 11:33:09;;;;;;;2.50;0.90;;;;;;;26.09;25.97;100489.47;4974832;28;20560;-76
2021/05/12 11:35:36;;;;;;;6.30;2.05;;;;;;;26.26;25.88;100488.38;4974596;28;20022;-76